Time;durP1;ratioP1;P1;durP2;ratioP2;P2;SDS_P1;SDS_P2;PMS_P1;PMS_P2;Temp;Humidity;BMP_temperature;BMP_pressure;BME280_temperature;BME280_humidity;BME280_pressure;Samples;Min_cycle;Max_cycle;Signal;HPM_P1;HPM_P2
2021/07/31 00:00:01;;;;;;;5.07;4.40;;;;;;;21.70;59.17;99836.00;5015148;28;20030;-44
2021/07/31 00:02:26;;;;;;;4.35;4.05;;;;;;;21.71;59.32;99840.38;5011711;28;20487;-44
2021/07/31 00:04:52;;;;;;;4.70;4.20;;;;;;;21.71;59.16;99831.50;5014881;28;20030;-44
2021/07/31 00:07:17;;;;;;;4.43;4.05;;;;;;;21.72;59.23;99835.91;5011668;28;20109;-44
2021/07/31 00:09:42;;;;;;;4.50;4.10;;;;;;;21.70;59.21;99825.28;5012397;28;20472;-49
2021/07/31 00:12:08;;;;;;;5.22;4.68;;;;;;;21.70;59.43;99830.63;5011363;28;20364;-44
2021/07/31 00:14:33;;;;;;;5.18;4.68;;;;;;;21.69;59.14;99830.72;5014363;28;20418;-43
2021/07/31 00:16:58;;;;;;;5.55;4.97;;;;;;;21.69;59.41;99830.72;5013070;28;20085;-44
2021/07/31 00:19:24;;;;;;;5.13;4.72;;;;;;;21.69;59.35;99831.59;5012797;28;20543;-44
2021/07/31 00:21:49;;;;;;;5.22;4.72;;;;;;;21.69;59.29;99830.72;5013853;28;20104;-44
2021/07/31 00:24:15;;;;;;;4.80;4.38;;;;;;;21.70;59.31;99837.84;5009837;28;20033;-44
2021/07/31 00:26:40;;;;;;;5.47;5.05;;;;;;;21.67;59.18;99833.53;5014093;28;20026;-46
2021/07/31 00:29:05;;;;;;;5.43;4.65;;;;;;;21.68;59.10;99835.25;5010564;28;20611;-50
2021/07/31 00:31:30;;;;;;;5.55;5.03;;;;;;;21.67;59.16;99841.56;5013044;28;20025;-45
2021/07/31 00:33:56;;;;;;;4.85;4.45;;;;;;;21.66;59.16;99830.00;5014930;28;20592;-44
2021/07/31 00:36:21;;;;;;;5.35;4.85;;;;;;;21.67;59.22;99834.41;5016245;28;20144;-42
2021/07/31 00:38:46;;;;;;;5.78;5.18;;;;;;;21.67;59.23;99830.84;5008633;28;20363;-42
2021/07/31 00:41:12;;;;;;;4.88;4.47;;;;;;;21.67;59.11;99839.75;5011738;28;20053;-43
2021/07/31 00:43:37;;;;;;;4.85;4.45;;;;;;;21.67;59.22;99841.56;5010312;28;20030;-43
2021/07/31 00:46:02;;;;;;;5.03;4.53;;;;;;;21.67;59.19;99849.63;5016539;28;20033;-42
2021/07/31 00:48:28;;;;;;;5.45;5.03;;;;;;;21.65;59.25;99844.34;5011284;28;20037;-42
2021/07/31 00:50:53;;;;;;;4.88;4.47;;;;;;;21.66;59.16;99855.97;5013776;28;20619;-47
2021/07/31 00:53:19;;;;;;;6.00;5.35;;;;;;;21.65;59.17;99852.41;5011611;28;20033;-43
2021/07/31 00:55:45;;;;;;;5.30;4.80;;;;;;;21.65;59.16;99863.13;5002486;28;20021;-43
2021/07/31 00:58:10;;;;;;;5.15;4.72;;;;;;;21.65;59.30;99863.13;5014647;28;20018;-43
2021/07/31 01:00:35;;;;;;;5.40;4.95;;;;;;;21.64;59.31;99863.28;5014076;28;20057;-43
2021/07/31 01:03:00;;;;;;;4.93;4.47;;;;;;;21.65;59.28;99865.81;5015390;28;20431;-43
2021/07/31 01:05:26;;;;;;;6.10;5.15;;;;;;;21.65;59.21;99871.19;5015704;28;20033;-42
2021/07/31 01:07:51;;;;;;;4.72;4.32;;;;;;;21.64;59.19;99869.47;5010385;28;20515;-42
2021/07/31 01:10:17;;;;;;;5.28;4.78;;;;;;;21.64;59.11;99871.31;5002500;28;20033;-42
2021/07/31 01:12:43;;;;;;;5.88;4.75;;;;;;;21.63;59.22;99877.63;5001718;28;20020;-44
2021/07/31 01:15:08;;;;;;;5.75;4.88;;;;;;;21.61;59.06;99872.38;4989892;28;20022;-44
2021/07/31 01:17:34;;;;;;;5.25;4.85;;;;;;;21.62;59.08;99871.44;4995837;28;20049;-44
2021/07/31 01:19:59;;;;;;;5.80;5.10;;;;;;;21.62;59.01;99870.56;5011377;28;20038;-44
2021/07/31 01:22:24;;;;;;;5.00;4.60;;;;;;;21.62;59.24;99879.47;5013565;28;20025;-44
2021/07/31 01:24:50;;;;;;;5.00;4.60;;;;;;;21.61;59.19;99879.56;5012070;28;20018;-44
2021/07/31 01:27:15;;;;;;;5.63;4.95;;;;;;;21.61;59.12;99880.41;5014686;28;20086;-44
2021/07/31 01:29:40;;;;;;;5.60;5.10;;;;;;;21.60;59.07;99881.38;5011063;28;20544;-43
2021/07/31 01:32:06;;;;;;;5.95;5.38;;;;;;;21.60;59.03;99881.38;4996112;28;20022;-43
2021/07/31 01:34:31;;;;;;;6.70;5.13;;;;;;;21.60;59.20;99881.38;5014442;28;20029;-44
2021/07/31 01:36:56;;;;;;;5.68;5.15;;;;;;;21.59;59.19;99882.38;5009295;28;20033;-44
2021/07/31 01:39:22;;;;;;;5.35;4.95;;;;;;;21.60;59.13;99893.94;5013031;28;20053;-44
2021/07/31 01:41:47;;;;;;;5.47;4.90;;;;;;;21.59;58.90;99890.41;5010770;28;20369;-43
2021/07/31 01:44:13;;;;;;;5.10;4.70;;;;;;;21.57;59.12;99878.91;5005864;28;20430;-44
2021/07/31 01:46:38;;;;;;;5.55;5.05;;;;;;;21.57;59.35;99881.59;5014659;28;20065;-43
2021/07/31 01:49:03;;;;;;;5.82;4.70;;;;;;;21.57;58.96;99889.63;5011328;28;20472;-44
2021/07/31 01:51:29;;;;;;;6.07;4.80;;;;;;;21.57;58.92;99889.63;5014503;28;20022;-44
2021/07/31 01:53:54;;;;;;;5.55;5.13;;;;;;;21.57;58.93;99895.00;5011108;28;20029;-43
2021/07/31 01:56:19;;;;;;;5.95;5.38;;;;;;;21.56;58.92;99887.06;5012370;28;20017;-44
2021/07/31 01:58:45;;;;;;;5.75;5.22;;;;;;;21.56;58.93;99885.25;5008413;28;20022;-44
2021/07/31 02:01:10;;;;;;;5.65;5.15;;;;;;;21.55;59.01;99891.59;5012353;28;20148;-44
2021/07/31 02:03:36;;;;;;;5.32;4.90;;;;;;;21.56;59.08;99898.66;5013714;28;20483;-44
2021/07/31 02:06:01;;;;;;;6.70;4.93;;;;;;;21.55;59.09;99891.59;5010797;28;20899;-44
2021/07/31 02:08:26;;;;;;;5.50;4.60;;;;;;;21.55;59.07;99894.28;5012207;28;20030;-44
2021/07/31 02:10:52;;;;;;;5.47;4.97;;;;;;;21.54;59.08;99900.56;5011734;28;20041;-44
2021/07/31 02:13:17;;;;;;;5.32;4.82;;;;;;;21.53;59.29;99893.50;5011734;28;20026;-44
2021/07/31 02:15:44;;;;;;;5.25;4.82;;;;;;;21.53;59.07;99904.22;5007714;28;20030;-44
2021/07/31 02:18:10;;;;;;;5.47;5.07;;;;;;;21.52;58.98;99903.38;4994392;28;20532;-44
2021/07/31 02:20:35;;;;;;;5.03;4.63;;;;;;;21.52;59.11;99899.84;5011522;28;20475;-44
2021/07/31 02:23:00;;;;;;;5.50;5.10;;;;;;;21.51;59.09;99904.34;5013399;28;20080;-43
2021/07/31 02:25:26;;;;;;;5.85;5.35;;;;;;;21.51;58.95;99900.81;4995047;28;20018;-44
2021/07/31 02:27:51;;;;;;;5.38;4.85;;;;;;;21.49;59.09;99898.22;5014094;28;20033;-43
2021/07/31 02:30:17;;;;;;;5.63;5.13;;;;;;;21.49;58.97;99897.34;5016960;28;20026;-42
2021/07/31 02:32:42;;;;;;;5.93;5.40;;;;;;;21.48;59.02;99901.84;4999388;28;20487;-43
2021/07/31 02:35:09;;;;;;;5.90;5.40;;;;;;;21.49;59.11;99902.72;5013526;28;20036;-44
2021/07/31 02:37:34;;;;;;;5.60;5.20;;;;;;;21.47;59.03;99905.50;5021716;28;20030;-42
2021/07/31 02:39:59;;;;;;;5.07;4.68;;;;;;;21.48;59.11;99907.22;4999937;28;20029;-42
2021/07/31 02:42:25;;;;;;;5.40;4.90;;;;;;;21.48;58.99;99906.38;5015062;28;20049;-42
2021/07/31 02:44:50;;;;;;;5.78;5.28;;;;;;;21.47;59.10;99910.03;4994727;28;20034;-45
2021/07/31 02:47:15;;;;;;;6.05;5.55;;;;;;;21.46;59.11;99909.16;5016552;28;20034;-42
2021/07/31 02:49:41;;;;;;;5.82;5.32;;;;;;;21.46;59.02;99908.28;5011799;28;20036;-45
2021/07/31 02:52:06;;;;;;;5.53;5.03;;;;;;;21.46;59.00;99919.00;5015907;28;20434;-45
2021/07/31 02:54:31;;;;;;;5.75;5.15;;;;;;;21.45;59.02;99911.94;5013389;28;20034;-47
2021/07/31 02:56:57;;;;;;;5.88;5.38;;;;;;;21.45;59.01;99910.13;5016552;28;20022;-45
2021/07/31 02:59:22;;;;;;;5.43;5.03;;;;;;;21.44;58.92;99910.22;5014868;28;20112;-44
2021/07/31 03:01:47;;;;;;;5.95;5.32;;;;;;;21.44;58.88;99910.22;5011765;28;20037;-44
2021/07/31 03:04:12;;;;;;;5.13;4.72;;;;;;;21.41;59.11;99909.47;5011233;28;20044;-44
2021/07/31 03:06:38;;;;;;;5.50;5.00;;;;;;;21.40;58.90;99905.06;5011452;28;20383;-44
2021/07/31 03:09:03;;;;;;;5.80;5.25;;;;;;;21.40;59.01;99905.06;5011943;28;20029;-45
2021/07/31 03:11:28;;;;;;;4.90;4.50;;;;;;;21.40;58.85;99904.19;4996837;28;20030;-44
2021/07/31 03:13:53;;;;;;;5.50;4.95;;;;;;;21.39;58.80;99903.34;5015533;28;20037;-44
2021/07/31 03:16:19;;;;;;;5.60;5.10;;;;;;;21.39;58.94;99913.22;4992506;28;20022;-44
2021/07/31 03:18:44;;;;;;;5.43;4.93;;;;;;;21.38;58.85;99912.34;5011966;28;21305;-44
2021/07/31 03:21:11;;;;;;;6.45;5.18;;;;;;;21.38;58.91;99917.69;5011083;28;20496;-44
2021/07/31 03:23:36;;;;;;;5.03;4.63;;;;;;;21.36;58.88;99905.38;4994253;28;20041;-43
2021/07/31 03:26:02;;;;;;;5.53;5.03;;;;;;;21.36;58.79;99903.56;5011762;28;20377;-43
2021/07/31 03:28:29;;;;;;;5.97;5.43;;;;;;;21.36;58.81;99910.72;5013049;28;20018;-44
2021/07/31 03:30:55;;;;;;;5.38;4.88;;;;;;;21.34;58.89;99910.81;5011834;28;20045;-44
2021/07/31 03:33:20;;;;;;;6.03;5.43;;;;;;;21.33;58.79;99903.75;5011282;28;20022;-43
2021/07/31 03:35:46;;;;;;;5.00;4.60;;;;;;;21.33;58.65;99909.13;4994441;28;20087;-44
2021/07/31 03:38:11;;;;;;;5.35;4.85;;;;;;;21.32;58.89;99907.41;5012066;28;20083;-43
2021/07/31 03:40:37;;;;;;;5.38;4.88;;;;;;;21.32;59.03;99901.16;4995785;28;20032;-44
2021/07/31 03:43:03;;;;;;;6.10;5.35;;;;;;;21.32;58.83;99901.16;5012168;28;20030;-43
2021/07/31 03:45:28;;;;;;;5.45;4.95;;;;;;;21.31;58.80;99900.34;5009675;28;20542;-43
2021/07/31 03:47:54;;;;;;;5.18;4.72;;;;;;;21.29;58.79;99899.56;5010637;28;20040;-42
2021/07/31 03:50:19;;;;;;;5.25;4.85;;;;;;;21.30;58.76;99903.13;5011000;28;20076;-44
2021/07/31 03:52:45;;;;;;;5.70;5.20;;;;;;;21.28;58.88;99911.25;5008525;28;20076;-44
2021/07/31 03:55:11;;;;;;;5.18;4.68;;;;;;;21.27;58.76;99909.50;5011291;28;20103;-43
2021/07/31 03:57:36;;;;;;;4.80;4.40;;;;;;;21.26;58.73;99918.53;4997527;28;20091;-44
2021/07/31 04:00:03;;;;;;;5.57;5.07;;;;;;;21.26;58.79;99918.53;5018348;28;20022;-44
2021/07/31 04:02:28;;;;;;;5.80;5.10;;;;;;;21.26;58.64;99929.25;5013642;28;20318;-44
2021/07/31 04:04:54;;;;;;;5.70;5.20;;;;;;;21.26;58.77;99934.63;5010810;28;20480;-46
2021/07/31 04:07:19;;;;;;;5.30;4.80;;;;;;;21.24;58.64;99929.34;4992941;28;20116;-44
2021/07/31 04:09:44;;;;;;;5.30;4.85;;;;;;;21.24;58.78;99936.56;5013366;28;20108;-44
2021/07/31 04:12:10;;;;;;;5.22;4.72;;;;;;;21.22;58.80;99933.09;4993644;28;20088;-45
2021/07/31 04:14:36;;;;;;;4.68;4.28;;;;;;;21.22;58.77;99943.81;5011987;28;20026;-45
2021/07/31 04:17:02;;;;;;;5.45;4.95;;;;;;;21.21;59.00;99939.44;5013316;28;20029;-46
2021/07/31 04:19:27;;;;;;;5.28;4.75;;;;;;;21.22;58.77;99946.50;5013840;28;20034;-44
2021/07/31 04:21:56;;;;;;;5.22;4.78;;;;;;;21.20;58.80;99945.75;5015950;28;20549;-44
2021/07/31 04:24:25;;;;;;;5.30;4.80;;;;;;;21.20;58.83;99948.44;4999818;28;20030;-43
2021/07/31 04:26:51;;;;;;;4.82;4.43;;;;;;;21.19;58.83;99955.63;5010146;28;20026;-44
2021/07/31 04:29:17;;;;;;;4.50;4.05;;;;;;;21.19;58.75;99952.94;5011122;28;20025;-44
2021/07/31 04:31:42;;;;;;;4.80;4.40;;;;;;;21.20;58.83;99953.81;5012121;28;20025;-44
2021/07/31 04:34:08;;;;;;;4.97;4.35;;;;;;;21.17;58.78;99948.63;5010896;28;20029;-44
2021/07/31 04:36:33;;;;;;;4.85;4.35;;;;;;;21.17;58.78;99951.31;5010394;28;20487;-44
2021/07/31 04:38:59;;;;;;;5.18;4.68;;;;;;;21.17;58.78;99956.69;4993187;28;20065;-44
2021/07/31 04:41:25;;;;;;;4.63;4.22;;;;;;;21.18;58.88;99958.41;5011401;28;20018;-44
2021/07/31 04:43:50;;;;;;;4.43;4.03;;;;;;;21.16;58.72;99955.81;5011419;28;20032;-44
2021/07/31 04:46:15;;;;;;;4.25;3.63;;;;;;;21.15;58.72;99960.31;5011432;28;20072;-44
2021/07/31 04:48:40;;;;;;;3.83;3.53;;;;;;;21.14;58.62;99953.22;5010590;28;20644;-44
2021/07/31 04:51:06;;;;;;;4.90;4.13;;;;;;;21.14;58.76;99963.94;5011260;28;20510;-44
2021/07/31 04:53:31;;;;;;;4.13;3.72;;;;;;;21.14;58.83;99957.75;5013746;28;20479;-44
2021/07/31 04:55:57;;;;;;;3.90;3.40;;;;;;;21.13;58.77;99967.59;5011580;28;20515;-44
2021/07/31 04:58:23;;;;;;;4.63;4.05;;;;;;;21.14;58.66;99961.28;5009081;28;20367;-44
2021/07/31 05:00:49;;;;;;;3.60;3.30;;;;;;;21.14;58.80;99963.13;5011705;28;20033;-44
2021/07/31 05:03:15;;;;;;;4.68;3.55;;;;;;;21.11;58.67;99958.78;5011330;28;20021;-44
2021/07/31 05:05:44;;;;;;;3.70;3.40;;;;;;;21.11;58.74;99956.09;5015028;28;20052;-44
2021/07/31 05:08:09;;;;;;;3.83;3.53;;;;;;;21.11;58.70;99950.75;5010680;28;20038;-43
2021/07/31 05:10:41;;;;;;;4.15;3.50;;;;;;;21.12;58.79;99944.44;5011734;28;20067;-46
2021/07/31 05:13:07;;;;;;;3.90;3.38;;;;;;;21.11;58.78;99947.22;5000840;28;20034;-46
2021/07/31 05:15:34;;;;;;;4.15;3.40;;;;;;;21.10;58.81;99950.84;5009031;28;20033;-45
2021/07/31 05:17:59;;;;;;;4.40;3.65;;;;;;;21.10;58.67;99946.34;4995709;28;20034;-44
2021/07/31 05:20:25;;;;;;;3.53;3.22;;;;;;;21.10;58.75;99949.03;5013176;28;20032;-42
2021/07/31 05:22:50;;;;;;;3.85;3.33;;;;;;;21.10;58.69;99950.84;5011934;28;20022;-42
2021/07/31 05:25:15;;;;;;;3.50;3.22;;;;;;;21.10;58.61;99946.34;4978687;28;20033;-42
2021/07/31 05:27:41;;;;;;;5.20;3.63;;;;;;;21.08;58.72;99942.94;5013868;28;20101;-42
2021/07/31 05:30:06;;;;;;;3.88;3.47;;;;;;;21.09;58.70;99944.63;5012115;28;20463;-47
2021/07/31 05:32:34;;;;;;;3.65;3.35;;;;;;;21.09;58.60;99935.72;5012664;28;20038;-43
2021/07/31 05:34:59;;;;;;;3.40;3.10;;;;;;;21.09;58.95;99933.91;5013775;28;20034;-44
2021/07/31 05:37:25;;;;;;;3.80;3.50;;;;;;;21.08;58.72;99934.88;5013373;28;20079;-44
2021/07/31 05:39:50;;;;;;;3.78;3.35;;;;;;;21.08;58.63;99934.88;5011384;28;20021;-44
2021/07/31 05:42:15;;;;;;;4.35;2.97;;;;;;;21.08;59.06;99934.00;5010406;28;20029;-44
2021/07/31 05:44:41;;;;;;;3.47;3.03;;;;;;;21.08;58.75;99931.34;5013079;28;20026;-44
2021/07/31 05:47:06;;;;;;;3.30;3.00;;;;;;;21.09;58.70;99930.38;5012265;28;20168;-44
2021/07/31 05:49:31;;;;;;;3.90;3.58;;;;;;;21.08;58.71;99931.34;4993754;28;20022;-44
2021/07/31 05:51:57;;;;;;;3.58;3.28;;;;;;;21.07;58.65;99935.81;5012775;28;20084;-42
2021/07/31 05:54:22;;;;;;;3.45;3.15;;;;;;;21.08;58.64;99936.69;4992134;28;20029;-42
2021/07/31 05:56:49;;;;;;;3.50;3.20;;;;;;;21.07;58.57;99934.97;5018651;28;20608;-42
2021/07/31 05:59:15;;;;;;;3.15;2.85;;;;;;;21.06;58.70;99933.25;5000169;28;20465;-41
2021/07/31 06:01:41;;;;;;;3.42;3.13;;;;;;;21.05;58.80;99934.22;5016588;28;20108;-45
2021/07/31 06:04:06;;;;;;;2.83;2.55;;;;;;;21.05;58.72;99935.06;4997324;28;20423;-49
2021/07/31 06:06:31;;;;;;;3.65;3.35;;;;;;;21.06;58.48;99944.84;5015803;28;20121;-44
2021/07/31 06:08:58;;;;;;;5.05;3.33;;;;;;;21.06;58.13;99938.59;5013836;28;20030;-43
2021/07/31 06:11:23;;;;;;;3.80;3.50;;;;;;;21.05;58.20;99936.88;5012794;28;20087;-43
2021/07/31 06:13:48;;;;;;;3.50;3.10;;;;;;;21.02;57.02;99929.91;5013260;28;20472;-45
2021/07/31 06:16:13;;;;;;;3.17;2.88;;;;;;;21.01;56.42;99936.25;5018125;28;20032;-42
2021/07/31 06:18:39;;;;;;;3.83;3.53;;;;;;;21.00;56.25;99923.78;5011123;28;20033;-44
2021/07/31 06:21:05;;;;;;;3.70;3.28;;;;;;;20.99;56.15;99935.47;5016062;28;20104;-44
2021/07/31 06:23:31;;;;;;;3.60;3.30;;;;;;;21.00;56.36;99929.13;5014229;28;21253;-44
2021/07/31 06:26:00;;;;;;;3.60;3.20;;;;;;;21.00;56.12;99929.13;5012154;28;20037;-43
2021/07/31 06:28:25;;;;;;;3.58;3.28;;;;;;;20.96;55.76;99927.63;4997107;28;20030;-44
2021/07/31 06:30:51;;;;;;;4.40;4.00;;;;;;;20.98;55.52;99928.41;5011037;28;20084;-43
2021/07/31 06:33:16;;;;;;;3.83;3.53;;;;;;;20.98;55.71;99937.28;5012146;28;20644;-46
2021/07/31 06:35:41;;;;;;;3.30;3.00;;;;;;;20.97;55.65;99930.19;5017000;28;20026;-44
2021/07/31 06:38:07;;;;;;;3.65;3.35;;;;;;;20.96;55.34;99939.22;5013086;28;20030;-43
2021/07/31 06:40:32;;;;;;;3.38;3.08;;;;;;;20.97;55.52;99940.09;5016285;28;20176;-44
2021/07/31 06:42:58;;;;;;;3.42;3.13;;;;;;;20.95;55.17;99939.31;5015999;28;20026;-44
2021/07/31 06:45:23;;;;;;;3.80;3.17;;;;;;;20.94;55.00;99945.63;4998587;28;20064;-43
2021/07/31 06:47:48;;;;;;;3.75;2.83;;;;;;;20.91;54.43;99937.78;5014025;28;20088;-44
2021/07/31 06:50:13;;;;;;;5.60;3.47;;;;;;;20.93;54.66;99930.50;4995247;28;20484;-43
2021/07/31 06:52:39;;;;;;;2.90;2.70;;;;;;;20.94;54.54;99940.28;5013526;28;20553;-42
2021/07/31 06:55:04;;;;;;;2.95;2.65;;;;;;;20.94;54.55;99929.56;4999140;28;20442;-44
2021/07/31 06:57:30;;;;;;;2.75;2.55;;;;;;;20.91;54.03;99937.78;4998428;28;20025;-42
2021/07/31 06:59:55;;;;;;;4.53;3.33;;;;;;;20.92;54.29;99943.06;5015196;28;20032;-43
2021/07/31 07:02:20;;;;;;;5.05;2.70;;;;;;;20.91;54.16;99951.19;5012675;28;20451;-43
2021/07/31 07:04:46;;;;;;;3.00;2.72;;;;;;;20.92;54.14;99942.19;5013605;28;20076;-43
2021/07/31 07:07:11;;;;;;;2.70;2.47;;;;;;;20.89;54.16;99944.13;5016069;28;20033;-46
2021/07/31 07:09:36;;;;;;;6.20;3.25;;;;;;;20.91;54.25;99945.81;5011910;28;20121;-45
2021/07/31 07:12:02;;;;;;;4.85;3.10;;;;;;;20.92;54.70;99950.22;5015302;28;20052;-45
2021/07/31 07:14:27;;;;;;;2.80;2.60;;;;;;;20.91;54.42;99944.03;4998075;28;20112;-45
2021/07/31 07:16:52;;;;;;;3.13;2.33;;;;;;;20.91;54.29;99941.34;5015665;28;20038;-45
2021/07/31 07:19:18;;;;;;;3.08;2.45;;;;;;;20.91;54.06;99941.34;5010292;28;20021;-43
2021/07/31 07:21:43;;;;;;;2.80;2.58;;;;;;;20.89;54.34;99936.06;5012593;28;20100;-43
2021/07/31 07:24:08;;;;;;;3.08;2.15;;;;;;;20.90;53.83;99942.28;5014841;28;20171;-43
2021/07/31 07:26:33;;;;;;;2.83;2.63;;;;;;;20.91;54.09;99941.34;5012073;28;20072;-44
2021/07/31 07:28:59;;;;;;;2.78;2.53;;;;;;;20.89;53.83;99946.78;5016248;28;20038;-43
2021/07/31 07:31:24;;;;;;;3.20;2.90;;;;;;;20.90;54.16;99944.97;5012130;28;20030;-43
2021/07/31 07:33:49;;;;;;;2.35;1.85;;;;;;;20.88;53.48;99942.38;5015837;28;20026;-43
2021/07/31 07:36:18;;;;;;;4.20;2.20;;;;;;;20.87;53.90;99948.66;5014316;28;20109;-43
2021/07/31 07:38:45;;;;;;;6.93;2.72;;;;;;;20.85;53.52;99947.91;4997376;28;20022;-43
2021/07/31 07:41:11;;;;;;;2.78;2.20;;;;;;;20.86;52.91;99955.00;5010131;28;20104;-43
2021/07/31 07:43:36;;;;;;;1.90;1.80;;;;;;;20.86;52.87;99951.44;5013239;28;20112;-43
2021/07/31 07:46:02;;;;;;;2.22;2.10;;;;;;;20.86;52.94;99946.09;5010455;28;20116;-43
2021/07/31 07:48:28;;;;;;;2.35;2.22;;;;;;;20.85;52.94;99937.19;5000912;28;20030;-43
2021/07/31 07:50:53;;;;;;;3.03;2.65;;;;;;;20.85;52.94;99933.66;5010683;28;20691;-43
2021/07/31 07:53:18;;;;;;;3.72;2.13;;;;;;;20.84;52.85;99946.19;5010456;28;20746;-45
2021/07/31 07:55:44;;;;;;;2.85;2.65;;;;;;;20.86;52.72;99940.72;4996518;28;20586;-45
2021/07/31 07:58:10;;;;;;;3.40;2.60;;;;;;;20.87;53.35;99945.97;5013460;28;20032;-45
2021/07/31 08:00:35;;;;;;;4.38;2.47;;;;;;;20.89;53.84;99944.13;4998484;28;20116;-46
2021/07/31 08:03:01;;;;;;;2.70;2.50;;;;;;;20.88;53.80;99947.72;5014995;28;20113;-45
2021/07/31 08:05:26;;;;;;;3.28;2.13;;;;;;;20.89;53.62;99949.47;4994958;28;20045;-42
2021/07/31 08:07:52;;;;;;;5.57;2.88;;;;;;;20.87;53.55;99958.50;5018402;28;20067;-42
2021/07/31 08:10:17;;;;;;;2.47;2.28;;;;;;;20.86;53.10;99946.09;5013432;28;20045;-43
2021/07/31 08:12:42;;;;;;;2.65;2.25;;;;;;;20.85;53.22;99947.91;5013114;28;20030;-42
2021/07/31 08:15:08;;;;;;;2.80;2.58;;;;;;;20.86;53.02;99949.63;5013415;28;20045;-42
2021/07/31 08:17:33;;;;;;;3.25;2.78;;;;;;;20.85;53.45;99953.28;5015153;28;20018;-46
2021/07/31 08:19:59;;;;;;;2.95;2.15;;;;;;;20.86;53.31;99948.75;5019412;28;20037;-42
2021/07/31 08:22:25;;;;;;;3.92;2.28;;;;;;;20.84;53.68;99954.22;5016161;28;20028;-45
2021/07/31 08:24:50;;;;;;;2.88;2.55;;;;;;;20.86;53.55;99959.47;5014244;28;20030;-44
2021/07/31 08:27:15;;;;;;;2.25;2.15;;;;;;;20.85;54.02;99955.09;5014794;28;20021;-42
2021/07/31 08:29:41;;;;;;;4.13;2.90;;;;;;;20.86;53.67;99970.19;5017733;28;20108;-42
2021/07/31 08:32:06;;;;;;;3.20;2.35;;;;;;;20.85;53.15;99964.00;5019131;28;20021;-43
2021/07/31 08:34:31;;;;;;;2.72;2.53;;;;;;;20.86;53.28;99955.00;5015186;28;20083;-43
2021/07/31 08:37:04;;;;;;;3.33;2.45;;;;;;;20.85;53.70;99966.69;5014520;28;20041;-42
2021/07/31 08:39:29;;;;;;;2.83;2.53;;;;;;;20.85;52.99;99968.50;5016141;28;20423;-44
2021/07/31 08:41:55;;;;;;;2.38;2.17;;;;;;;20.86;52.93;99970.19;4998497;28;20025;-44
2021/07/31 08:44:20;;;;;;;2.65;2.45;;;;;;;20.87;52.98;99972.78;4995488;28;20100;-44
2021/07/31 08:46:46;;;;;;;1.80;1.70;;;;;;;20.87;54.64;99969.22;5016737;28;20037;-44
2021/07/31 08:49:13;;;;;;;2.75;1.90;;;;;;;20.87;54.65;99962.06;4996251;28;20073;-44
2021/07/31 08:51:39;;;;;;;2.92;2.45;;;;;;;20.87;54.19;99970.09;5019496;28;20028;-43
2021/07/31 08:54:04;;;;;;;3.17;2.15;;;;;;;20.86;54.30;99976.44;5015988;28;20025;-44
2021/07/31 08:56:30;;;;;;;2.47;2.33;;;;;;;20.86;54.22;99975.56;5016919;28;20017;-44
2021/07/31 08:58:59;;;;;;;2.55;2.40;;;;;;;20.86;53.67;99970.19;5012542;28;20026;-44
2021/07/31 09:01:24;;;;;;;4.15;2.33;;;;;;;20.85;53.92;99969.34;5014423;28;20040;-44
2021/07/31 09:03:51;;;;;;;3.30;2.97;;;;;;;20.85;53.99;99977.41;5011777;28;20468;-44
2021/07/31 09:06:32;;;;;;;2.50;2.17;;;;;;;20.85;54.22;99972.03;5014605;28;20057;-44
2021/07/31 09:08:58;;;;;;;2.80;2.60;;;;;;;20.86;54.13;99962.16;5014581;28;20026;-44
2021/07/31 09:11:24;;;;;;;6.95;2.20;;;;;;;20.87;54.09;99972.78;5013823;28;20029;-44
2021/07/31 09:14:13;;;;;;;2.28;2.08;;;;;;;20.85;54.28;99977.41;5000618;28;20033;-44
2021/07/31 09:16:40;;;;;;;3.08;2.60;;;;;;;20.85;53.99;99968.50;5001473;28;20014;-44
2021/07/31 09:19:13;;;;;;;3.50;2.60;;;;;;;20.86;54.10;99976.44;5016904;28;20016;-43
2021/07/31 09:21:40;;;;;;;4.40;2.40;;;;;;;20.86;53.83;99960.34;4995897;28;20547;-44
2021/07/31 09:24:21;;;;;;;3.13;2.83;;;;;;;20.85;53.99;99958.63;5016171;28;20407;-44
2021/07/31 09:26:49;;;;;;;2.38;2.17;;;;;;;20.86;53.91;99968.38;5011501;28;20033;-44
2021/07/31 09:29:17;;;;;;;3.60;2.47;;;;;;;20.86;53.96;99960.34;5020073;28;20018;-44
2021/07/31 09:31:45;;;;;;;2.65;2.45;;;;;;;20.86;53.78;99968.38;5016481;28;20026;-44
2021/07/31 09:34:11;;;;;;;4.03;2.50;;;;;;;20.86;53.62;99960.34;5020106;28;20619;-44
2021/07/31 09:36:38;;;;;;;5.00;2.63;;;;;;;20.87;53.39;99959.38;4999417;28;20052;-44
2021/07/31 09:39:11;;;;;;;2.45;2.25;;;;;;;20.86;53.96;99956.81;5023152;28;20057;-44
2021/07/31 09:41:40;;;;;;;2.95;2.10;;;;;;;20.88;53.84;99954.91;5022614;28;20537;-44
2021/07/31 09:44:14;;;;;;;3.33;2.83;;;;;;;20.86;53.95;99952.31;5020124;28;20032;-44
2021/07/31 09:46:42;;;;;;;2.45;2.25;;;;;;;20.89;53.99;99959.31;5001404;28;20372;-44
2021/07/31 09:49:10;;;;;;;2.55;2.35;;;;;;;20.86;53.77;99949.63;5021036;28;20021;-44
2021/07/31 09:51:41;;;;;;;1.90;1.80;;;;;;;20.87;54.02;99954.03;5020605;28;20104;-44
2021/07/31 09:54:11;;;;;;;2.40;2.20;;;;;;;20.87;53.76;99948.66;5020855;28;20032;-44
2021/07/31 09:56:47;;;;;;;2.80;2.22;;;;;;;20.87;53.81;99951.34;4989688;28;20045;-44
2021/07/31 09:59:14;;;;;;;3.15;2.72;;;;;;;20.88;54.35;99961.13;5020114;28;20021;-44
2021/07/31 10:01:48;;;;;;;2.10;1.90;;;;;;;20.90;54.09;99955.69;5004945;28;20025;-44
2021/07/31 10:04:14;;;;;;;3.47;1.98;;;;;;;20.88;54.15;99953.09;5022618;28;20048;-44
2021/07/31 10:06:41;;;;;;;4.70;2.63;;;;;;;20.88;54.23;99942.38;5019548;28;20025;-43
2021/07/31 10:09:07;;;;;;;2.65;2.42;;;;;;;20.88;54.05;99941.50;5020960;28;20048;-44
2021/07/31 10:11:34;;;;;;;3.85;2.25;;;;;;;20.89;54.17;99941.44;5025945;28;20036;-43
2021/07/31 10:14:01;;;;;;;4.07;2.08;;;;;;;20.91;54.79;99951.19;5003034;28;20037;-44
2021/07/31 10:16:27;;;;;;;2.75;2.33;;;;;;;20.92;54.49;99950.22;5019392;28;20096;-43
2021/07/31 10:19:01;;;;;;;5.18;2.08;;;;;;;20.89;54.12;99949.47;5025820;28;20026;-44
2021/07/31 10:21:27;;;;;;;3.45;2.40;;;;;;;20.88;54.30;99945.06;5007086;28;20034;-44
2021/07/31 10:23:59;;;;;;;4.32;2.55;;;;;;;20.89;54.41;99946.78;5000511;28;20113;-44
2021/07/31 10:26:26;;;;;;;3.95;2.95;;;;;;;20.90;54.63;99958.34;5016074;28;20356;-44
2021/07/31 10:28:51;;;;;;;4.15;2.75;;;;;;;20.90;54.71;99950.31;4998127;28;20071;-44
2021/07/31 10:31:33;;;;;;;2.30;2.10;;;;;;;20.89;54.75;99952.16;5021797;28;20418;-44
2021/07/31 10:33:59;;;;;;;2.58;2.10;;;;;;;20.89;54.46;99948.59;5021796;28;20022;-44
2021/07/31 10:36:33;;;;;;;3.45;2.30;;;;;;;20.89;54.76;99952.16;5020496;28;20502;-43
2021/07/31 10:39:19;;;;;;;2.88;2.00;;;;;;;20.91;54.89;99961.91;5020781;28;20361;-44
2021/07/31 10:42:02;;;;;;;5.43;2.20;;;;;;;20.95;54.82;99952.72;5014308;28;20599;-44
2021/07/31 10:44:28;;;;;;;4.07;1.77;;;;;;;20.90;54.45;99963.72;5015374;28;20033;-44
2021/07/31 10:47:21;;;;;;;3.08;1.83;;;;;;;20.93;54.99;99966.19;5017114;28;20503;-44
2021/07/31 10:49:47;;;;;;;4.15;2.22;;;;;;;20.92;54.48;99964.50;5013908;28;20029;-44
2021/07/31 10:52:50;;;;;;;4.53;2.20;;;;;;;20.93;54.47;99965.34;4998760;28;20083;-44
2021/07/31 10:55:17;;;;;;;2.72;2.47;;;;;;;20.93;54.71;99968.00;4997275;28;20044;-44
2021/07/31 10:57:52;;;;;;;2.80;2.03;;;;;;;20.92;54.58;99958.25;4982364;28;20027;-43
2021/07/31 11:00:30;;;;;;;2.95;1.88;;;;;;;20.95;54.91;99979.50;5018420;28;20026;-42
2021/07/31 11:02:58;;;;;;;3.72;2.58;;;;;;;20.93;54.67;99984.97;5016566;28;20036;-42
2021/07/31 11:05:23;;;;;;;1.92;1.80;;;;;;;20.93;54.15;99981.41;5020082;28;20037;-49
2021/07/31 11:07:57;;;;;;;3.42;1.95;;;;;;;20.92;54.46;99985.94;4998284;28;20096;-42
2021/07/31 11:10:30;;;;;;;2.33;1.92;;;;;;;20.93;54.49;99981.41;5018423;28;20029;-42
2021/07/31 11:12:56;;;;;;;2.08;1.70;;;;;;;20.96;54.80;99978.53;5021964;28;20121;-42
2021/07/31 11:15:22;;;;;;;2.47;1.83;;;;;;;20.92;54.69;99987.75;5008418;28;20108;-42
2021/07/31 11:17:54;;;;;;;1.70;1.60;;;;;;;20.95;54.81;99977.69;5018586;28;20061;-42
2021/07/31 11:20:38;;;;;;;1.75;1.65;;;;;;;20.95;54.60;99995.59;5022326;28;20455;-42
2021/07/31 11:23:06;;;;;;;2.00;1.90;;;;;;;20.94;54.05;99993.88;4997797;28;20048;-42
2021/07/31 11:25:31;;;;;;;2.45;1.73;;;;;;;20.95;54.49;99996.47;5014015;28;20109;-45
2021/07/31 11:28:02;;;;;;;1.73;1.60;;;;;;;20.95;54.57;99995.59;4985834;28;20104;-42
2021/07/31 11:30:36;;;;;;;3.95;2.17;;;;;;;20.95;54.20;99996.47;5019717;28;20025;-44